LNR032 LFPN-LFLY
Flight info
| Callsign | LNR032 |
|---|---|
| Flight time | N/A |
| Altitude | 9000 |
| Route | OLZOM R31 TRARE A3 LESPI |
| Aircraft | C172/L-SBDFGRY/S |
Departure
| Time | 2026-05-06 06:35 |
|---|---|
| Airport | Toussus-le-Noble Airport (LFPN) |
Arrival
| Time | N/A |
|---|---|
| Airport | Lyon Bron Airport (LFLY) |
| Time | Latitude | Longitude | Altitude | Speed | Heading |
|---|---|---|---|---|---|
| 2026-05-06 06:25 | 48.74729 | 2.10032 | 512 ft | 0 kts | 313° |
| 2026-05-06 06:31 | 48.74752 | 2.09994 | 512 ft | 6 kts | 322° |
| 2026-05-06 06:31 | 48.74775 | 2.09988 | 512 ft | 0 kts | 360° |
| 2026-05-06 06:31 | 48.74797 | 2.09988 | 512 ft | 7 kts | 1° |
| 2026-05-06 06:32 | 48.74833 | 2.09933 | 512 ft | 14 kts | 269° |
| 2026-05-06 06:32 | 48.74837 | 2.09792 | 512 ft | 10 kts | 298° |
| 2026-05-06 06:32 | 48.74902 | 2.09732 | 512 ft | 14 kts | 4° |
| 2026-05-06 06:32 | 48.74992 | 2.09793 | 512 ft | 13 kts | 34° |
| 2026-05-06 06:33 | 48.75072 | 2.09867 | 512 ft | 14 kts | 29° |
| 2026-05-06 06:33 | 48.75135 | 2.09931 | 511 ft | 8 kts | 65° |
| 2026-05-06 06:33 | 48.75137 | 2.09938 | 511 ft | 0 kts | 69° |
| 2026-05-06 06:34 | 48.75172 | 2.10081 | 513 ft | 36 kts | 72° |
| 2026-05-06 06:34 | 48.75295 | 2.10644 | 529 ft | 70 kts | 61° |
| 2026-05-06 06:34 | 48.75424 | 2.11385 | 646 ft | 75 kts | 63° |
| 2026-05-06 06:34 | 48.75594 | 2.12123 | 799 ft | 75 kts | 62° |
| 2026-05-06 06:35 | 48.75772 | 2.12877 | 915 ft | 79 kts | 65° |
| 2026-05-06 06:35 | 48.75920 | 2.13724 | 1020 ft | 88 kts | 64° |
| 2026-05-06 06:35 | 48.76085 | 2.14647 | 1186 ft | 89 kts | 67° |
| 2026-05-06 06:35 | 48.76249 | 2.15586 | 1387 ft | 92 kts | 68° |
| 2026-05-06 06:36 | 48.76406 | 2.16489 | 1715 ft | 86 kts | 68° |
| 2026-05-06 06:36 | 48.76559 | 2.17351 | 1917 ft | 84 kts | 68° |
| 2026-05-06 06:36 | 48.76707 | 2.18214 | 2096 ft | 84 kts | 68° |
| 2026-05-06 06:36 | 48.76846 | 2.19078 | 2268 ft | 84 kts | 65° |
| 2026-05-06 06:37 | 48.76988 | 2.19922 | 2469 ft | 83 kts | 67° |
| 2026-05-06 06:37 | 48.77132 | 2.20773 | 2678 ft | 84 kts | 67° |
| 2026-05-06 06:37 | 48.77276 | 2.21634 | 2900 ft | 84 kts | 67° |
| 2026-05-06 06:37 | 48.77420 | 2.22496 | 3119 ft | 85 kts | 69° |
| 2026-05-06 06:38 | 48.77563 | 2.23373 | 3300 ft | 86 kts | 67° |
| 2026-05-06 06:38 | 48.77709 | 2.24255 | 3476 ft | 87 kts | 68° |
| 2026-05-06 06:38 | 48.77858 | 2.25160 | 3623 ft | 88 kts | 68° |
| 2026-05-06 06:38 | 48.78009 | 2.26054 | 3777 ft | 88 kts | 69° |
| 2026-05-06 06:39 | 48.78158 | 2.26956 | 3952 ft | 88 kts | 69° |
| 2026-05-06 06:39 | 48.78309 | 2.27862 | 4099 ft | 90 kts | 69° |
| 2026-05-06 06:39 | 48.78459 | 2.28780 | 4206 ft | 91 kts | 68° |
| 2026-05-06 06:39 | 48.78612 | 2.29707 | 4346 ft | 91 kts | 68° |
| 2026-05-06 06:40 | 48.78759 | 2.30651 | 4404 ft | 93 kts | 69° |
| 2026-05-06 06:40 | 48.78927 | 2.31513 | 4536 ft | 91 kts | 70° |
| 2026-05-06 06:40 | 48.79065 | 2.32460 | 4661 ft | 91 kts | 68° |
| 2026-05-06 06:40 | 48.79220 | 2.33383 | 4767 ft | 92 kts | 70° |
| 2026-05-06 06:41 | 48.79378 | 2.34341 | 4881 ft | 93 kts | 72° |
| 2026-05-06 06:41 | 48.79321 | 2.35337 | 4996 ft | 103 kts | 112° |
| 2026-05-06 06:41 | 48.78742 | 2.35999 | 5107 ft | 111 kts | 159° |
| 2026-05-06 06:41 | 48.78002 | 2.36378 | 5197 ft | 114 kts | 156° |
| 2026-05-06 06:42 | 48.77256 | 2.36762 | 5308 ft | 113 kts | 156° |
| 2026-05-06 06:42 | 48.76505 | 2.37156 | 5398 ft | 114 kts | 157° |
| 2026-05-06 06:42 | 48.75753 | 2.37545 | 5499 ft | 115 kts | 157° |
| 2026-05-06 06:42 | 48.74997 | 2.37939 | 5616 ft | 114 kts | 157° |
| 2026-05-06 06:43 | 48.74251 | 2.38329 | 5730 ft | 115 kts | 157° |
| 2026-05-06 06:43 | 48.73497 | 2.38722 | 5844 ft | 114 kts | 157° |
| 2026-05-06 06:43 | 48.72735 | 2.39064 | 5972 ft | 116 kts | 176° |
| 2026-05-06 06:43 | 48.71934 | 2.38889 | 6103 ft | 117 kts | 187° |
| 2026-05-06 06:44 | 48.71130 | 2.38697 | 6246 ft | 117 kts | 188° |
| 2026-05-06 06:44 | 48.70324 | 2.38538 | 6328 ft | 117 kts | 188° |
| 2026-05-06 06:44 | 48.69520 | 2.38356 | 6426 ft | 116 kts | 188° |
| 2026-05-06 06:44 | 48.68721 | 2.38176 | 6523 ft | 117 kts | 188° |
| 2026-05-06 06:45 | 48.67918 | 2.37995 | 6622 ft | 116 kts | 189° |
| 2026-05-06 06:45 | 48.67116 | 2.37822 | 6692 ft | 118 kts | 187° |
| 2026-05-06 06:45 | 48.66305 | 2.37637 | 6785 ft | 118 kts | 189° |
| 2026-05-06 06:45 | 48.65486 | 2.37462 | 6826 ft | 120 kts | 187° |
| 2026-05-06 06:46 | 48.64665 | 2.37269 | 6926 ft | 119 kts | 187° |
| 2026-05-06 06:46 | 48.63843 | 2.37094 | 6996 ft | 120 kts | 188° |
| 2026-05-06 06:46 | 48.63027 | 2.36910 | 7061 ft | 119 kts | 187° |
| 2026-05-06 06:46 | 48.62210 | 2.36726 | 7147 ft | 117 kts | 187° |
| 2026-05-06 06:47 | 48.61407 | 2.36548 | 7202 ft | 119 kts | 187° |
| 2026-05-06 06:47 | 48.60605 | 2.36379 | 7307 ft | 114 kts | 188° |
| 2026-05-06 06:47 | 48.59932 | 2.36216 | 7365 ft | 117 kts | 187° |
| 2026-05-06 06:47 | 48.59107 | 2.36047 | 7423 ft | 121 kts | 187° |
| 2026-05-06 06:48 | 48.58280 | 2.35856 | 7520 ft | 120 kts | 187° |
| 2026-05-06 06:48 | 48.57447 | 2.35671 | 7602 ft | 121 kts | 188° |
| 2026-05-06 06:48 | 48.56624 | 2.35491 | 7699 ft | 119 kts | 188° |
| 2026-05-06 06:48 | 48.55818 | 2.35314 | 7836 ft | 112 kts | 189° |
| 2026-05-06 06:49 | 48.55046 | 2.35141 | 7912 ft | 113 kts | 187° |
| 2026-05-06 06:49 | 48.54274 | 2.34967 | 7999 ft | 113 kts | 188° |
| 2026-05-06 06:49 | 48.53489 | 2.34799 | 8053 ft | 113 kts | 189° |
| 2026-05-06 06:49 | 48.52709 | 2.34627 | 8103 ft | 114 kts | 188° |
| 2026-05-06 06:50 | 48.51928 | 2.34447 | 8171 ft | 113 kts | 188° |
| 2026-05-06 06:50 | 48.51131 | 2.34276 | 8216 ft | 117 kts | 189° |
| 2026-05-06 06:50 | 48.50335 | 2.34105 | 8308 ft | 114 kts | 188° |
| 2026-05-06 06:50 | 48.49561 | 2.33926 | 8400 ft | 112 kts | 188° |
| 2026-05-06 06:51 | 48.48785 | 2.33756 | 8444 ft | 112 kts | 189° |
| 2026-05-06 06:51 | 48.48012 | 2.33589 | 8491 ft | 112 kts | 188° |
| 2026-05-06 06:51 | 48.47254 | 2.33421 | 8554 ft | 111 kts | 189° |
| 2026-05-06 06:51 | 48.46485 | 2.33251 | 8595 ft | 112 kts | 189° |
| 2026-05-06 06:52 | 48.45718 | 2.33079 | 8653 ft | 111 kts | 189° |
| 2026-05-06 06:52 | 48.44954 | 2.32913 | 8702 ft | 111 kts | 189° |
| 2026-05-06 06:52 | 48.44191 | 2.32743 | 8759 ft | 111 kts | 188° |
| 2026-05-06 06:52 | 48.43424 | 2.32575 | 8812 ft | 111 kts | 189° |
| 2026-05-06 06:53 | 48.42663 | 2.32407 | 8857 ft | 112 kts | 189° |
| 2026-05-06 06:53 | 48.41881 | 2.32237 | 8860 ft | 114 kts | 188° |
| 2026-05-06 06:53 | 48.41097 | 2.32062 | 8856 ft | 114 kts | 193° |
| 2026-05-06 06:53 | 48.40306 | 2.31895 | 8869 ft | 116 kts | 195° |
| 2026-05-06 06:54 | 48.39497 | 2.31705 | 8863 ft | 119 kts | 194° |
| 2026-05-06 06:54 | 48.38678 | 2.31533 | 8863 ft | 119 kts | 195° |
| 2026-05-06 06:54 | 48.37859 | 2.31352 | 8866 ft | 118 kts | 194° |
| 2026-05-06 06:54 | 48.37045 | 2.31169 | 8861 ft | 117 kts | 192° |
| 2026-05-06 06:55 | 48.36243 | 2.30994 | 8854 ft | 116 kts | 193° |
| 2026-05-06 06:55 | 48.35457 | 2.30824 | 8852 ft | 115 kts | 193° |
| 2026-05-06 06:55 | 48.34663 | 2.30649 | 8854 ft | 115 kts | 193° |
| 2026-05-06 06:55 | 48.33865 | 2.30473 | 8856 ft | 116 kts | 193° |
| 2026-05-06 06:56 | 48.33059 | 2.30297 | 8861 ft | 118 kts | 193° |
| 2026-05-06 06:56 | 48.32239 | 2.30120 | 8862 ft | 120 kts | 194° |
| 2026-05-06 06:56 | 48.31415 | 2.29938 | 8862 ft | 120 kts | 195° |
| 2026-05-06 06:56 | 48.30590 | 2.29755 | 8861 ft | 119 kts | 195° |
| 2026-05-06 06:57 | 48.29780 | 2.29580 | 8857 ft | 118 kts | 195° |
| 2026-05-06 06:57 | 48.28972 | 2.29402 | 8854 ft | 117 kts | 195° |
| 2026-05-06 06:57 | 48.28169 | 2.29227 | 8849 ft | 116 kts | 195° |
| 2026-05-06 06:57 | 48.27372 | 2.29052 | 8846 ft | 115 kts | 195° |
| 2026-05-06 06:58 | 48.26580 | 2.28878 | 8845 ft | 115 kts | 195° |
| 2026-05-06 06:58 | 48.25793 | 2.28706 | 8847 ft | 114 kts | 195° |
| 2026-05-06 06:58 | 48.25015 | 2.28537 | 8846 ft | 114 kts | 195° |
| 2026-05-06 06:58 | 48.24229 | 2.28365 | 8846 ft | 114 kts | 195° |
| 2026-05-06 06:59 | 48.23441 | 2.28193 | 8849 ft | 114 kts | 195° |
| 2026-05-06 06:59 | 48.22657 | 2.28021 | 8848 ft | 114 kts | 195° |
| 2026-05-06 06:59 | 48.21875 | 2.27850 | 8847 ft | 113 kts | 195° |
| 2026-05-06 06:59 | 48.21095 | 2.27679 | 8849 ft | 112 kts | 195° |
| 2026-05-06 07:00 | 48.20330 | 2.27513 | 8854 ft | 112 kts | 196° |
| 2026-05-06 07:00 | 48.19558 | 2.27344 | 8847 ft | 111 kts | 195° |
| 2026-05-06 07:00 | 48.18797 | 2.27179 | 8847 ft | 110 kts | 196° |
| 2026-05-06 07:00 | 48.18296 | 2.27070 | 8851 ft | 110 kts | 195° |
| 2026-05-06 07:01 | 48.17538 | 2.26904 | 8854 ft | 110 kts | 195° |
| 2026-05-06 07:01 | 48.16779 | 2.26738 | 8855 ft | 110 kts | 195° |
| 2026-05-06 07:01 | 48.16018 | 2.26573 | 8853 ft | 110 kts | 196° |
| 2026-05-06 07:01 | 48.15247 | 2.26617 | 8850 ft | 116 kts | 162° |
| 2026-05-06 07:02 | 48.14510 | 2.27044 | 8861 ft | 115 kts | 167° |
| 2026-05-06 07:02 | 48.13756 | 2.27457 | 8866 ft | 116 kts | 165° |
| 2026-05-06 07:02 | 48.12988 | 2.27875 | 8868 ft | 118 kts | 164° |
| 2026-05-06 07:02 | 48.12204 | 2.28303 | 8866 ft | 120 kts | 165° |
| 2026-05-06 07:03 | 48.11411 | 2.28736 | 8868 ft | 121 kts | 164° |
| 2026-05-06 07:03 | 48.10615 | 2.29170 | 8865 ft | 122 kts | 164° |
| 2026-05-06 07:03 | 48.09826 | 2.29600 | 8865 ft | 122 kts | 164° |
| 2026-05-06 07:03 | 48.09025 | 2.30036 | 8864 ft | 123 kts | 165° |
| 2026-05-06 07:04 | 48.08220 | 2.30475 | 8866 ft | 123 kts | 165° |
| 2026-05-06 07:04 | 48.07414 | 2.30915 | 8866 ft | 123 kts | 165° |
| 2026-05-06 07:04 | 48.06608 | 2.31353 | 8869 ft | 123 kts | 164° |
| 2026-05-06 07:04 | 48.05803 | 2.31791 | 8866 ft | 123 kts | 164° |
| 2026-05-06 07:05 | 48.05001 | 2.32227 | 8866 ft | 123 kts | 164° |
| 2026-05-06 07:05 | 48.04207 | 2.32660 | 8865 ft | 123 kts | 164° |
| 2026-05-06 07:05 | 48.03405 | 2.33096 | 8863 ft | 122 kts | 164° |
| 2026-05-06 07:05 | 48.02608 | 2.33531 | 8860 ft | 121 kts | 164° |
| 2026-05-06 07:06 | 48.01811 | 2.33963 | 8877 ft | 121 kts | 164° |
| 2026-05-06 07:06 | 48.01017 | 2.34393 | 8877 ft | 120 kts | 164° |
| 2026-05-06 07:06 | 48.00234 | 2.34820 | 8873 ft | 120 kts | 165° |
| 2026-05-06 07:06 | 47.99445 | 2.35247 | 8873 ft | 120 kts | 164° |
| 2026-05-06 07:07 | 47.98669 | 2.35669 | 8870 ft | 120 kts | 165° |
| 2026-05-06 07:07 | 47.97889 | 2.36094 | 8879 ft | 119 kts | 163° |
| 2026-05-06 07:07 | 47.97110 | 2.36515 | 8878 ft | 119 kts | 163° |
| 2026-05-06 07:07 | 47.96328 | 2.36938 | 8878 ft | 119 kts | 164° |
| 2026-05-06 07:08 | 47.95544 | 2.37363 | 8880 ft | 120 kts | 165° |
| 2026-05-06 07:08 | 47.94753 | 2.37792 | 8880 ft | 121 kts | 165° |
| 2026-05-06 07:08 | 47.93964 | 2.38220 | 8884 ft | 120 kts | 164° |
| 2026-05-06 07:08 | 47.93184 | 2.38643 | 8881 ft | 121 kts | 165° |
| 2026-05-06 07:09 | 47.92388 | 2.39073 | 8880 ft | 121 kts | 165° |
| 2026-05-06 07:09 | 47.91593 | 2.39503 | 8881 ft | 121 kts | 165° |
| 2026-05-06 07:09 | 47.90795 | 2.39936 | 8880 ft | 122 kts | 165° |
| 2026-05-06 07:09 | 47.89995 | 2.40368 | 8881 ft | 122 kts | 164° |
| 2026-05-06 07:10 | 47.89208 | 2.40792 | 8880 ft | 121 kts | 163° |
| 2026-05-06 07:10 | 47.88414 | 2.41222 | 8877 ft | 121 kts | 164° |
| 2026-05-06 07:10 | 47.87626 | 2.41648 | 8878 ft | 120 kts | 163° |
| 2026-05-06 07:10 | 47.86836 | 2.42074 | 8880 ft | 121 kts | 164° |
| 2026-05-06 07:11 | 47.86036 | 2.42495 | 8883 ft | 124 kts | 166° |
| 2026-05-06 07:11 | 47.85226 | 2.42951 | 8880 ft | 125 kts | 163° |
| 2026-05-06 07:11 | 47.84409 | 2.43385 | 8879 ft | 124 kts | 165° |
| 2026-05-06 07:11 | 47.83595 | 2.43825 | 8876 ft | 125 kts | 164° |
| 2026-05-06 07:12 | 47.82778 | 2.44263 | 8877 ft | 124 kts | 163° |
| 2026-05-06 07:12 | 47.81975 | 2.44697 | 8872 ft | 122 kts | 163° |
| 2026-05-06 07:12 | 47.81180 | 2.45126 | 8847 ft | 121 kts | 163° |
| 2026-05-06 07:12 | 47.80399 | 2.45546 | 8845 ft | 120 kts | 163° |
| 2026-05-06 07:13 | 47.79612 | 2.45969 | 8840 ft | 120 kts | 163° |
| 2026-05-06 07:13 | 47.78829 | 2.46391 | 8841 ft | 119 kts | 164° |
| 2026-05-06 07:13 | 47.78045 | 2.46814 | 8842 ft | 119 kts | 163° |
| 2026-05-06 07:13 | 47.77275 | 2.47227 | 8841 ft | 118 kts | 163° |
| 2026-05-06 07:14 | 47.76503 | 2.47643 | 8841 ft | 118 kts | 164° |
| 2026-05-06 07:14 | 47.75733 | 2.48057 | 8840 ft | 117 kts | 164° |
| 2026-05-06 07:14 | 47.74968 | 2.48468 | 8841 ft | 117 kts | 163° |
| 2026-05-06 07:14 | 47.74205 | 2.48879 | 8842 ft | 116 kts | 163° |
| 2026-05-06 07:15 | 47.73444 | 2.49287 | 8840 ft | 116 kts | 163° |
| 2026-05-06 07:15 | 47.72684 | 2.49694 | 8841 ft | 116 kts | 164° |
| 2026-05-06 07:15 | 47.71920 | 2.50104 | 8842 ft | 116 kts | 164° |
| 2026-05-06 07:15 | 47.71166 | 2.50510 | 8842 ft | 117 kts | 164° |
| 2026-05-06 07:16 | 47.70401 | 2.50920 | 8846 ft | 117 kts | 164° |
| 2026-05-06 07:16 | 47.69635 | 2.51332 | 8845 ft | 117 kts | 163° |
| 2026-05-06 07:16 | 47.68871 | 2.51740 | 8845 ft | 117 kts | 163° |
| 2026-05-06 07:16 | 47.68106 | 2.52150 | 8849 ft | 116 kts | 166° |
| 2026-05-06 07:17 | 47.67349 | 2.52556 | 8850 ft | 116 kts | 165° |
| 2026-05-06 07:17 | 47.66587 | 2.52963 | 8850 ft | 116 kts | 165° |
| 2026-05-06 07:17 | 47.65833 | 2.53368 | 8852 ft | 117 kts | 165° |
| 2026-05-06 07:17 | 47.65065 | 2.53778 | 8851 ft | 118 kts | 166° |
| 2026-05-06 07:18 | 47.64296 | 2.54190 | 8850 ft | 117 kts | 166° |
| 2026-05-06 07:18 | 47.63530 | 2.54601 | 8848 ft | 117 kts | 166° |
| 2026-05-06 07:18 | 47.62763 | 2.55010 | 8848 ft | 116 kts | 165° |
| 2026-05-06 07:18 | 47.62003 | 2.55416 | 8848 ft | 116 kts | 166° |
| 2026-05-06 07:19 | 47.61240 | 2.55823 | 8852 ft | 117 kts | 166° |
| 2026-05-06 07:19 | 47.60477 | 2.56230 | 8853 ft | 119 kts | 166° |
| 2026-05-06 07:19 | 47.59693 | 2.56649 | 8852 ft | 120 kts | 165° |
| 2026-05-06 07:19 | 47.58912 | 2.57066 | 8851 ft | 119 kts | 165° |
| 2026-05-06 07:20 | 47.58136 | 2.57480 | 8850 ft | 118 kts | 165° |
| 2026-05-06 07:20 | 47.57363 | 2.57892 | 8848 ft | 118 kts | 166° |
| 2026-05-06 07:20 | 47.56590 | 2.58305 | 8846 ft | 118 kts | 166° |
| 2026-05-06 07:20 | 47.55822 | 2.58715 | 8845 ft | 117 kts | 168° |
| 2026-05-06 07:21 | 47.55057 | 2.59122 | 8843 ft | 117 kts | 166° |
| 2026-05-06 07:21 | 47.54290 | 2.59525 | 8846 ft | 117 kts | 167° |
| 2026-05-06 07:21 | 47.53536 | 2.59932 | 8843 ft | 117 kts | 165° |
| 2026-05-06 07:21 | 47.52768 | 2.60339 | 8840 ft | 117 kts | 167° |
| 2026-05-06 07:22 | 47.52004 | 2.60746 | 8842 ft | 116 kts | 166° |
| 2026-05-06 07:22 | 47.51243 | 2.61152 | 8840 ft | 115 kts | 168° |
| 2026-05-06 07:22 | 47.50484 | 2.61556 | 8840 ft | 116 kts | 168° |
| 2026-05-06 07:22 | 47.49727 | 2.61959 | 8840 ft | 115 kts | 168° |
| 2026-05-06 07:23 | 47.48978 | 2.62356 | 8841 ft | 116 kts | 168° |
| 2026-05-06 07:23 | 47.48218 | 2.62761 | 8841 ft | 116 kts | 168° |
| 2026-05-06 07:23 | 47.47458 | 2.63164 | 8840 ft | 116 kts | 166° |
| 2026-05-06 07:23 | 47.46701 | 2.63566 | 8840 ft | 115 kts | 166° |
| 2026-05-06 07:24 | 47.45949 | 2.63967 | 8842 ft | 115 kts | 166° |
| 2026-05-06 07:24 | 47.45200 | 2.64363 | 8840 ft | 114 kts | 168° |
| 2026-05-06 07:24 | 47.44451 | 2.64761 | 8843 ft | 114 kts | 165° |
| 2026-05-06 07:24 | 47.43709 | 2.65155 | 8839 ft | 113 kts | 168° |
| 2026-05-06 07:25 | 47.42972 | 2.65545 | 8843 ft | 112 kts | 168° |
| 2026-05-06 07:25 | 47.42234 | 2.65935 | 8845 ft | 113 kts | 166° |
| 2026-05-06 07:25 | 47.41495 | 2.66327 | 8849 ft | 113 kts | 165° |
| 2026-05-06 07:25 | 47.40753 | 2.66721 | 8849 ft | 113 kts | 165° |
| 2026-05-06 07:26 | 47.40008 | 2.67114 | 8849 ft | 114 kts | 166° |
| 2026-05-06 07:26 | 47.39257 | 2.67511 | 8850 ft | 115 kts | 167° |
| 2026-05-06 07:26 | 47.38506 | 2.67911 | 8849 ft | 114 kts | 167° |
| 2026-05-06 07:26 | 47.37767 | 2.68301 | 8849 ft | 114 kts | 167° |
| 2026-05-06 07:27 | 47.37016 | 2.68699 | 8850 ft | 115 kts | 166° |
| 2026-05-06 07:27 | 47.36265 | 2.69097 | 8848 ft | 115 kts | 168° |
| 2026-05-06 07:27 | 47.35516 | 2.69492 | 8849 ft | 114 kts | 166° |
| 2026-05-06 07:27 | 47.34764 | 2.69889 | 8849 ft | 115 kts | 167° |
| 2026-05-06 07:28 | 47.34009 | 2.70286 | 8850 ft | 115 kts | 167° |
| 2026-05-06 07:28 | 47.33253 | 2.70686 | 8855 ft | 116 kts | 165° |
| 2026-05-06 07:28 | 47.31719 | 2.71495 | 8864 ft | 120 kts | 168° |
| 2026-05-06 07:29 | 47.30929 | 2.71913 | 8859 ft | 121 kts | 168° |
| 2026-05-06 07:29 | 47.30141 | 2.72329 | 8862 ft | 120 kts | 166° |
| 2026-05-06 07:29 | 47.29348 | 2.72746 | 8861 ft | 121 kts | 168° |
| 2026-05-06 07:29 | 47.28555 | 2.73164 | 8862 ft | 121 kts | 168° |
| 2026-05-06 07:30 | 47.27761 | 2.73580 | 8862 ft | 123 kts | 169° |
| 2026-05-06 07:30 | 47.26949 | 2.74004 | 8858 ft | 125 kts | 166° |
| 2026-05-06 07:30 | 47.26263 | 2.74811 | 8854 ft | 128 kts | 134° |
| 2026-05-06 07:30 | 47.25684 | 2.75787 | 8847 ft | 125 kts | 137° |
| 2026-05-06 07:31 | 47.25121 | 2.76725 | 8851 ft | 123 kts | 137° |
| 2026-05-06 07:31 | 47.24555 | 2.77662 | 8851 ft | 122 kts | 135° |
| 2026-05-06 07:31 | 47.23997 | 2.78589 | 8849 ft | 120 kts | 136° |
| 2026-05-06 07:31 | 47.23442 | 2.79510 | 8853 ft | 120 kts | 138° |
| 2026-05-06 07:32 | 47.22887 | 2.80428 | 8856 ft | 120 kts | 136° |
| 2026-05-06 07:32 | 47.22331 | 2.81346 | 8852 ft | 120 kts | 137° |
| 2026-05-06 07:32 | 47.21777 | 2.82261 | 8849 ft | 120 kts | 139° |
| 2026-05-06 07:32 | 47.21216 | 2.83184 | 8851 ft | 121 kts | 138° |
| 2026-05-06 07:33 | 47.20655 | 2.84111 | 8852 ft | 121 kts | 139° |
| 2026-05-06 07:33 | 47.20101 | 2.85026 | 8858 ft | 121 kts | 136° |
| 2026-05-06 07:33 | 47.19540 | 2.85948 | 8855 ft | 121 kts | 137° |
| 2026-05-06 07:33 | 47.18977 | 2.86878 | 8855 ft | 121 kts | 136° |
| 2026-05-06 07:34 | 47.18415 | 2.87803 | 8859 ft | 121 kts | 136° |
| 2026-05-06 07:34 | 47.17857 | 2.88721 | 8857 ft | 120 kts | 136° |
| 2026-05-06 07:34 | 47.17296 | 2.89643 | 8851 ft | 121 kts | 139° |
| 2026-05-06 07:34 | 47.16739 | 2.90560 | 8858 ft | 122 kts | 136° |
| 2026-05-06 07:35 | 47.16176 | 2.91486 | 8855 ft | 122 kts | 138° |
| 2026-05-06 07:35 | 47.15608 | 2.92421 | 8857 ft | 124 kts | 139° |
| 2026-05-06 07:35 | 47.15027 | 2.93371 | 8859 ft | 125 kts | 140° |
| 2026-05-06 07:35 | 47.14432 | 2.94316 | 8866 ft | 125 kts | 137° |
| 2026-05-06 07:36 | 47.13841 | 2.95256 | 8864 ft | 125 kts | 137° |
| 2026-05-06 07:36 | 47.13256 | 2.96193 | 8855 ft | 124 kts | 139° |
| 2026-05-06 07:36 | 47.12671 | 2.97128 | 8855 ft | 124 kts | 137° |
| 2026-05-06 07:36 | 47.12090 | 2.98054 | 8854 ft | 123 kts | 137° |
| 2026-05-06 07:37 | 47.11511 | 2.98975 | 8847 ft | 123 kts | 139° |
| 2026-05-06 07:37 | 47.10936 | 2.99884 | 8856 ft | 122 kts | 140° |
| 2026-05-06 07:37 | 47.10356 | 3.00802 | 8852 ft | 123 kts | 137° |
| 2026-05-06 07:37 | 47.09776 | 3.01719 | 8855 ft | 122 kts | 137° |
| 2026-05-06 07:38 | 47.09201 | 3.02630 | 8855 ft | 122 kts | 139° |
| 2026-05-06 07:38 | 47.08625 | 3.03542 | 8853 ft | 122 kts | 140° |
| 2026-05-06 07:38 | 47.08045 | 3.04456 | 8856 ft | 123 kts | 140° |
| 2026-05-06 07:38 | 47.07465 | 3.05373 | 8863 ft | 123 kts | 137° |
| 2026-05-06 07:39 | 47.06883 | 3.06294 | 8863 ft | 124 kts | 140° |
| 2026-05-06 07:39 | 47.06296 | 3.07220 | 8867 ft | 124 kts | 139° |
| 2026-05-06 07:39 | 47.05716 | 3.08135 | 8867 ft | 124 kts | 137° |
| 2026-05-06 07:39 | 47.05131 | 3.09058 | 8867 ft | 123 kts | 137° |
| 2026-05-06 07:40 | 47.04546 | 3.09983 | 8865 ft | 124 kts | 137° |
| 2026-05-06 07:40 | 47.03952 | 3.10919 | 8864 ft | 125 kts | 139° |
| 2026-05-06 07:40 | 47.03359 | 3.11853 | 8866 ft | 124 kts | 137° |
| 2026-05-06 07:40 | 47.02767 | 3.12788 | 8860 ft | 125 kts | 139° |
| 2026-05-06 07:41 | 47.02171 | 3.13724 | 8867 ft | 125 kts | 137° |
| 2026-05-06 07:41 | 47.01577 | 3.14661 | 8864 ft | 126 kts | 139° |
| 2026-05-06 07:41 | 47.00990 | 3.15585 | 8867 ft | 125 kts | 137° |
| 2026-05-06 07:41 | 47.00395 | 3.16521 | 8864 ft | 126 kts | 137° |
| 2026-05-06 07:42 | 46.99798 | 3.17459 | 8864 ft | 126 kts | 137° |
| 2026-05-06 07:42 | 46.99202 | 3.18397 | 8863 ft | 125 kts | 137° |
| 2026-05-06 07:42 | 46.98608 | 3.19333 | 8864 ft | 125 kts | 137° |
| 2026-05-06 07:42 | 46.98017 | 3.20260 | 8860 ft | 125 kts | 139° |
| 2026-05-06 07:43 | 46.97425 | 3.21193 | 8859 ft | 125 kts | 138° |
| 2026-05-06 07:43 | 46.96840 | 3.22109 | 8863 ft | 124 kts | 139° |
| 2026-05-06 07:43 | 46.96251 | 3.23035 | 8856 ft | 125 kts | 139° |
| 2026-05-06 07:43 | 46.95658 | 3.23964 | 8856 ft | 125 kts | 140° |
| 2026-05-06 07:44 | 46.95060 | 3.24902 | 8860 ft | 125 kts | 138° |
| 2026-05-06 07:44 | 46.94467 | 3.25833 | 8865 ft | 125 kts | 137° |
| 2026-05-06 07:44 | 46.93874 | 3.26763 | 8862 ft | 124 kts | 140° |
| 2026-05-06 07:44 | 46.93292 | 3.27674 | 8855 ft | 123 kts | 137° |
| 2026-05-06 07:45 | 46.92707 | 3.28592 | 8858 ft | 123 kts | 138° |
| 2026-05-06 07:45 | 46.92125 | 3.29503 | 8854 ft | 122 kts | 137° |
| 2026-05-06 07:45 | 46.91740 | 3.30106 | 8858 ft | 121 kts | 138° |
| 2026-05-06 07:45 | 46.91161 | 3.31012 | 8855 ft | 122 kts | 138° |
| 2026-05-06 07:46 | 46.90582 | 3.31918 | 8855 ft | 122 kts | 138° |
| 2026-05-06 07:46 | 46.90002 | 3.32825 | 8855 ft | 122 kts | 138° |
| 2026-05-06 07:46 | 46.89421 | 3.33733 | 8854 ft | 122 kts | 138° |
| 2026-05-06 07:46 | 46.88846 | 3.34631 | 8856 ft | 122 kts | 138° |
| 2026-05-06 07:47 | 46.88266 | 3.35537 | 8856 ft | 122 kts | 138° |
| 2026-05-06 07:47 | 46.87685 | 3.36446 | 8856 ft | 122 kts | 139° |
| 2026-05-06 07:47 | 46.87102 | 3.37355 | 8857 ft | 123 kts | 138° |
| 2026-05-06 07:47 | 46.86520 | 3.38266 | 8856 ft | 122 kts | 138° |
| 2026-05-06 07:48 | 46.85936 | 3.39176 | 8854 ft | 122 kts | 138° |
| 2026-05-06 07:48 | 46.85354 | 3.40085 | 8853 ft | 123 kts | 138° |
| 2026-05-06 07:48 | 46.84770 | 3.40994 | 8851 ft | 123 kts | 138° |
| 2026-05-06 07:48 | 46.84192 | 3.41909 | 8858 ft | 122 kts | 137° |
| 2026-05-06 07:49 | 46.83615 | 3.42821 | 8854 ft | 122 kts | 138° |
| 2026-05-06 07:49 | 46.83045 | 3.43720 | 8854 ft | 122 kts | 138° |
| 2026-05-06 07:49 | 46.82465 | 3.44634 | 8857 ft | 122 kts | 137° |
| 2026-05-06 07:49 | 46.81880 | 3.45555 | 8861 ft | 125 kts | 138° |
| 2026-05-06 07:50 | 46.81286 | 3.46493 | 8868 ft | 127 kts | 137° |
| 2026-05-06 07:50 | 46.80680 | 3.47447 | 8869 ft | 129 kts | 138° |
| 2026-05-06 07:50 | 46.80067 | 3.48412 | 8871 ft | 130 kts | 137° |
| 2026-05-06 07:50 | 46.79449 | 3.49385 | 8868 ft | 131 kts | 137° |
| 2026-05-06 07:51 | 46.78828 | 3.50364 | 8868 ft | 131 kts | 137° |
| 2026-05-06 07:51 | 46.78206 | 3.51342 | 8868 ft | 132 kts | 137° |
| 2026-05-06 07:51 | 46.77583 | 3.52321 | 8868 ft | 132 kts | 137° |
| 2026-05-06 07:51 | 46.76969 | 3.53286 | 8868 ft | 132 kts | 137° |
| 2026-05-06 07:52 | 46.76343 | 3.54269 | 8868 ft | 132 kts | 137° |
| 2026-05-06 07:52 | 46.75717 | 3.55252 | 8869 ft | 132 kts | 137° |
| 2026-05-06 07:52 | 46.75088 | 3.56241 | 8869 ft | 133 kts | 138° |
| 2026-05-06 07:52 | 46.74459 | 3.57229 | 8870 ft | 133 kts | 137° |
| 2026-05-06 07:53 | 46.73828 | 3.58219 | 8869 ft | 133 kts | 137° |
| 2026-05-06 07:53 | 46.73196 | 3.59209 | 8870 ft | 133 kts | 137° |
| 2026-05-06 07:53 | 46.72567 | 3.60196 | 8861 ft | 133 kts | 138° |
| 2026-05-06 07:53 | 46.71943 | 3.61174 | 8852 ft | 133 kts | 137° |
| 2026-05-06 07:54 | 46.71314 | 3.62161 | 8852 ft | 133 kts | 138° |
| 2026-05-06 07:54 | 46.70667 | 3.63123 | 8845 ft | 131 kts | 149° |
| 2026-05-06 07:54 | 46.69850 | 3.63604 | 8850 ft | 127 kts | 166° |
| 2026-05-06 07:54 | 46.69023 | 3.64070 | 8851 ft | 127 kts | 166° |
| 2026-05-06 07:55 | 46.68203 | 3.64519 | 8853 ft | 128 kts | 166° |
| 2026-05-06 07:55 | 46.67365 | 3.64978 | 8853 ft | 128 kts | 165° |
| 2026-05-06 07:55 | 46.66532 | 3.65435 | 8850 ft | 128 kts | 166° |
| 2026-05-06 07:55 | 46.65699 | 3.65891 | 8852 ft | 127 kts | 166° |
| 2026-05-06 07:56 | 46.64870 | 3.66347 | 8849 ft | 127 kts | 166° |
| 2026-05-06 07:56 | 46.64044 | 3.66798 | 8848 ft | 127 kts | 166° |
| 2026-05-06 07:56 | 46.63219 | 3.67250 | 8849 ft | 126 kts | 166° |
| 2026-05-06 07:56 | 46.62395 | 3.67702 | 8847 ft | 126 kts | 165° |
| 2026-05-06 07:57 | 46.61584 | 3.68145 | 8845 ft | 126 kts | 166° |
| 2026-05-06 07:57 | 46.60747 | 3.68602 | 8848 ft | 127 kts | 166° |
| 2026-05-06 07:57 | 46.59930 | 3.69049 | 8847 ft | 127 kts | 166° |
| 2026-05-06 07:57 | 46.59106 | 3.69500 | 8845 ft | 127 kts | 166° |
| 2026-05-06 07:58 | 46.58275 | 3.69955 | 8850 ft | 127 kts | 166° |
| 2026-05-06 07:58 | 46.57448 | 3.70407 | 8848 ft | 127 kts | 166° |
| 2026-05-06 07:58 | 46.56628 | 3.70855 | 8849 ft | 127 kts | 165° |
| 2026-05-06 07:58 | 46.55801 | 3.71306 | 8850 ft | 127 kts | 165° |
| 2026-05-06 07:59 | 46.54973 | 3.71758 | 8844 ft | 127 kts | 165° |
| 2026-05-06 07:59 | 46.54148 | 3.72207 | 8843 ft | 126 kts | 165° |
| 2026-05-06 07:59 | 46.53323 | 3.72657 | 8843 ft | 126 kts | 165° |
| 2026-05-06 07:59 | 46.52502 | 3.73106 | 8842 ft | 126 kts | 166° |
| 2026-05-06 08:00 | 46.51681 | 3.73554 | 8838 ft | 126 kts | 166° |
| 2026-05-06 08:00 | 46.50859 | 3.74000 | 8839 ft | 126 kts | 165° |
| 2026-05-06 08:00 | 46.50030 | 3.74452 | 8834 ft | 127 kts | 166° |
| 2026-05-06 08:00 | 46.49201 | 3.74905 | 8834 ft | 127 kts | 166° |
| 2026-05-06 08:01 | 46.48370 | 3.75357 | 8856 ft | 127 kts | 166° |
| 2026-05-06 08:01 | 46.47551 | 3.75802 | 8856 ft | 127 kts | 165° |
| 2026-05-06 08:01 | 46.46721 | 3.76254 | 8856 ft | 127 kts | 165° |
| 2026-05-06 08:01 | 46.45893 | 3.76704 | 8856 ft | 127 kts | 165° |
| 2026-05-06 08:02 | 46.45077 | 3.77203 | 8860 ft | 126 kts | 165° |
| 2026-05-06 08:02 | 46.44254 | 3.77652 | 8858 ft | 126 kts | 165° |
| 2026-05-06 08:02 | 46.43435 | 3.78126 | 8858 ft | 126 kts | 164° |
| 2026-05-06 08:02 | 46.42625 | 3.78597 | 8861 ft | 127 kts | 164° |
| 2026-05-06 08:03 | 46.41802 | 3.79075 | 8865 ft | 127 kts | 165° |
| 2026-05-06 08:03 | 46.40979 | 3.79554 | 8864 ft | 127 kts | 165° |
| 2026-05-06 08:03 | 46.40159 | 3.80030 | 8842 ft | 127 kts | 165° |
| 2026-05-06 08:03 | 46.39337 | 3.80505 | 8844 ft | 128 kts | 164° |
| 2026-05-06 08:04 | 46.38520 | 3.80980 | 8841 ft | 128 kts | 164° |
| 2026-05-06 08:04 | 46.37693 | 3.81460 | 8840 ft | 128 kts | 164° |
| 2026-05-06 08:04 | 46.36869 | 3.81937 | 8837 ft | 127 kts | 165° |
| 2026-05-06 08:04 | 46.36042 | 3.82382 | 8843 ft | 125 kts | 169° |
| 2026-05-06 08:05 | 46.35225 | 3.82842 | 8843 ft | 126 kts | 164° |
| 2026-05-06 08:05 | 46.34403 | 3.83296 | 8848 ft | 126 kts | 165° |
| 2026-05-06 08:05 | 46.33575 | 3.83744 | 8856 ft | 128 kts | 166° |
| 2026-05-06 08:05 | 46.32726 | 3.84208 | 8855 ft | 132 kts | 164° |
| 2026-05-06 08:06 | 46.31861 | 3.84682 | 8854 ft | 133 kts | 166° |
| 2026-05-06 08:06 | 46.30987 | 3.85142 | 8849 ft | 133 kts | 164° |
| 2026-05-06 08:06 | 46.30123 | 3.85613 | 8843 ft | 132 kts | 165° |
| 2026-05-06 08:06 | 46.29278 | 3.86081 | 8841 ft | 131 kts | 164° |
| 2026-05-06 08:07 | 46.28425 | 3.86541 | 8839 ft | 131 kts | 165° |
| 2026-05-06 08:07 | 46.27574 | 3.87003 | 8840 ft | 130 kts | 165° |
| 2026-05-06 08:07 | 46.26737 | 3.87457 | 8838 ft | 127 kts | 165° |
| 2026-05-06 08:07 | 46.25917 | 3.87901 | 8843 ft | 124 kts | 165° |
| 2026-05-06 08:08 | 46.25110 | 3.88339 | 8842 ft | 123 kts | 165° |
| 2026-05-06 08:08 | 46.24311 | 3.88771 | 8845 ft | 123 kts | 165° |
| 2026-05-06 08:08 | 46.23503 | 3.89207 | 8843 ft | 124 kts | 165° |
| 2026-05-06 08:08 | 46.22700 | 3.89641 | 8845 ft | 125 kts | 164° |
| 2026-05-06 08:09 | 46.21881 | 3.90085 | 8851 ft | 126 kts | 165° |
| 2026-05-06 08:09 | 46.21058 | 3.90531 | 8853 ft | 126 kts | 165° |
| 2026-05-06 08:09 | 46.20234 | 3.90978 | 8849 ft | 126 kts | 165° |
| 2026-05-06 08:09 | 46.19410 | 3.91423 | 8846 ft | 126 kts | 165° |
| 2026-05-06 08:10 | 46.18588 | 3.91860 | 8842 ft | 125 kts | 165° |
| 2026-05-06 08:10 | 46.17780 | 3.92302 | 8852 ft | 123 kts | 165° |
| 2026-05-06 08:10 | 46.16999 | 3.92726 | 8846 ft | 119 kts | 165° |
| 2026-05-06 08:10 | 46.16234 | 3.93139 | 8854 ft | 115 kts | 166° |
| 2026-05-06 08:11 | 46.15487 | 3.93544 | 8849 ft | 114 kts | 165° |
| 2026-05-06 08:11 | 46.14752 | 3.93938 | 8851 ft | 112 kts | 165° |
| 2026-05-06 08:11 | 46.14020 | 3.94333 | 8850 ft | 112 kts | 166° |
| 2026-05-06 08:11 | 46.13297 | 3.94724 | 8855 ft | 110 kts | 166° |
| 2026-05-06 08:12 | 46.12574 | 3.95113 | 8859 ft | 111 kts | 165° |
| 2026-05-06 08:12 | 46.11856 | 3.95499 | 8859 ft | 112 kts | 165° |
| 2026-05-06 08:12 | 46.11125 | 3.95900 | 8859 ft | 114 kts | 159° |
| 2026-05-06 08:12 | 46.10703 | 3.96841 | 8859 ft | 119 kts | 90° |
| 2026-05-06 08:13 | 46.10710 | 3.98038 | 8865 ft | 120 kts | 99° |
| 2026-05-06 08:13 | 46.10562 | 3.99220 | 8866 ft | 120 kts | 104° |
| 2026-05-06 08:13 | 46.10362 | 4.00390 | 8865 ft | 120 kts | 107° |
| 2026-05-06 08:13 | 46.10153 | 4.01555 | 8864 ft | 119 kts | 108° |
| 2026-05-06 08:14 | 46.09923 | 4.02697 | 8864 ft | 118 kts | 109° |
| 2026-05-06 08:14 | 46.09690 | 4.03829 | 8860 ft | 117 kts | 109° |
| 2026-05-06 08:14 | 46.09461 | 4.04942 | 8860 ft | 114 kts | 109° |
| 2026-05-06 08:14 | 46.09235 | 4.06037 | 8852 ft | 112 kts | 109° |
| 2026-05-06 08:15 | 46.09017 | 4.07099 | 8859 ft | 109 kts | 109° |
| 2026-05-06 08:15 | 46.08804 | 4.08132 | 8859 ft | 106 kts | 109° |
| 2026-05-06 08:15 | 46.08601 | 4.09116 | 8852 ft | 102 kts | 110° |
| 2026-05-06 08:15 | 46.08405 | 4.10071 | 8849 ft | 97 kts | 110° |
| 2026-05-06 08:16 | 46.08218 | 4.10984 | 8808 ft | 93 kts | 111° |
| 2026-05-06 08:16 | 46.08034 | 4.11878 | 8728 ft | 92 kts | 110° |
| 2026-05-06 08:16 | 46.07851 | 4.12759 | 8648 ft | 92 kts | 109° |
| 2026-05-06 08:16 | 46.07668 | 4.13632 | 8546 ft | 90 kts | 108° |
| 2026-05-06 08:17 | 46.07478 | 4.14514 | 8403 ft | 99 kts | 112° |
| 2026-05-06 08:17 | 46.07267 | 4.15527 | 8281 ft | 111 kts | 110° |
| 2026-05-06 08:17 | 46.07027 | 4.16667 | 8062 ft | 129 kts | 109° |
| 2026-05-06 08:17 | 46.06748 | 4.18006 | 7567 ft | 154 kts | 109° |
| 2026-05-06 08:18 | 46.06427 | 4.19556 | 7009 ft | 167 kts | 109° |
| 2026-05-06 08:18 | 46.06107 | 4.21117 | 6878 ft | 153 kts | 109° |
| 2026-05-06 08:18 | 46.05814 | 4.22536 | 6860 ft | 144 kts | 109° |
| 2026-05-06 08:18 | 46.05531 | 4.23892 | 6859 ft | 139 kts | 109° |
| 2026-05-06 08:19 | 46.05256 | 4.25208 | 6863 ft | 135 kts | 109° |
| 2026-05-06 08:19 | 46.04991 | 4.26480 | 6865 ft | 134 kts | 109° |
| 2026-05-06 08:19 | 46.04725 | 4.27758 | 6868 ft | 133 kts | 109° |
| 2026-05-06 08:19 | 46.04464 | 4.29018 | 6864 ft | 131 kts | 107° |
| 2026-05-06 08:20 | 46.04386 | 4.30326 | 6865 ft | 130 kts | 83° |
| 2026-05-06 08:20 | 46.04298 | 4.31587 | 6862 ft | 128 kts | 130° |
| 2026-05-06 08:20 | 46.03567 | 4.32064 | 6891 ft | 115 kts | 196° |
| 2026-05-06 08:20 | 46.02881 | 4.31585 | 6887 ft | 109 kts | 231° |
| 2026-05-06 08:21 | 46.02555 | 4.30623 | 6884 ft | 106 kts | 265° |
| 2026-05-06 08:21 | 46.02619 | 4.29582 | 6884 ft | 107 kts | 277° |
| 2026-05-06 08:21 | 46.02714 | 4.28521 | 6885 ft | 106 kts | 278° |
| 2026-05-06 08:21 | 46.02809 | 4.27475 | 6885 ft | 105 kts | 277° |
| 2026-05-06 08:22 | 46.02906 | 4.26424 | 6883 ft | 106 kts | 278° |
| 2026-05-06 08:22 | 46.03295 | 4.25541 | 6887 ft | 110 kts | 317° |
| 2026-05-06 08:22 | 46.03996 | 4.25043 | 6883 ft | 114 kts | 333° |
| 2026-05-06 08:22 | 46.04731 | 4.24595 | 6883 ft | 115 kts | 331° |
| 2026-05-06 08:23 | 46.05456 | 4.24146 | 6882 ft | 115 kts | 331° |
| 2026-05-06 08:23 | 46.06194 | 4.23686 | 6880 ft | 115 kts | 331° |
| 2026-05-06 08:23 | 46.06929 | 4.23231 | 6880 ft | 114 kts | 331° |
| 2026-05-06 08:23 | 46.07657 | 4.22777 | 6878 ft | 114 kts | 331° |
| 2026-05-06 08:24 | 46.08391 | 4.22322 | 6885 ft | 116 kts | 332° |
| 2026-05-06 08:24 | 46.09134 | 4.21858 | 6885 ft | 117 kts | 332° |
| 2026-05-06 08:24 | 46.09883 | 4.21393 | 6882 ft | 117 kts | 331° |
| 2026-05-06 08:24 | 46.10631 | 4.20927 | 6881 ft | 116 kts | 331° |
| 2026-05-06 08:25 | 46.11371 | 4.20468 | 6881 ft | 116 kts | 331° |
| 2026-05-06 08:25 | 46.12104 | 4.20012 | 6880 ft | 116 kts | 331° |
| 2026-05-06 08:25 | 46.12844 | 4.19549 | 6880 ft | 116 kts | 331° |
| 2026-05-06 08:25 | 46.13588 | 4.19086 | 6880 ft | 116 kts | 331° |
| 2026-05-06 08:26 | 46.14248 | 4.18475 | 6869 ft | 111 kts | 301° |
| 2026-05-06 08:26 | 46.14571 | 4.17484 | 6873 ft | 109 kts | 286° |
| 2026-05-06 08:26 | 46.14705 | 4.16413 | 6872 ft | 109 kts | 273° |
| 2026-05-06 08:26 | 46.14666 | 4.15323 | 6870 ft | 109 kts | 261° |
| 2026-05-06 08:27 | 46.14559 | 4.14238 | 6873 ft | 109 kts | 274° |
| 2026-05-06 08:27 | 46.14676 | 4.13156 | 6876 ft | 109 kts | 284° |
| 2026-05-06 08:27 | 46.14969 | 4.12153 | 6880 ft | 111 kts | 297° |
| 2026-05-06 08:27 | 46.15441 | 4.11252 | 6879 ft | 115 kts | 310° |
| 2026-05-06 08:28 | 46.15846 | 4.10752 | 6878 ft | 117 kts | 320° |
| 2026-05-06 08:28 | 46.16841 | 4.10069 | 6879 ft | 121 kts | 338° |
| 2026-05-06 08:28 | 46.17666 | 4.09785 | 6881 ft | 121 kts | 340° |
| 2026-05-06 08:28 | 46.18211 | 4.09595 | 6880 ft | 122 kts | 342° |
| 2026-05-06 08:29 | 46.19038 | 4.09320 | 6880 ft | 122 kts | 342° |
| 2026-05-06 08:29 | 46.19870 | 4.09043 | 6878 ft | 123 kts | 342° |
| 2026-05-06 08:29 | 46.20700 | 4.08768 | 6878 ft | 122 kts | 342° |
| 2026-05-06 08:29 | 46.21548 | 4.08604 | 6876 ft | 127 kts | 4° |
| 2026-05-06 08:30 | 46.22401 | 4.08886 | 6881 ft | 127 kts | 6° |
| 2026-05-06 08:30 | 46.23265 | 4.09166 | 6881 ft | 127 kts | 7° |
| 2026-05-06 08:30 | 46.24126 | 4.09449 | 6881 ft | 127 kts | 7° |
| 2026-05-06 08:30 | 46.24989 | 4.09727 | 6882 ft | 127 kts | 7° |
| 2026-05-06 08:31 | 46.25857 | 4.10005 | 6873 ft | 128 kts | 7° |
| 2026-05-06 08:31 | 46.26727 | 4.10285 | 6873 ft | 128 kts | 7° |
| 2026-05-06 08:31 | 46.27598 | 4.10562 | 6873 ft | 128 kts | 7° |